sensor_id;sensor_type;location;lat;lon;timestamp;temperature;humidity
73643;DHT22;61938;48.652;9.292;2023-11-22T00:00:52;7.60;99.90
73643;DHT22;61938;48.652;9.292;2023-11-22T00:03:18;7.60;99.90
73643;DHT22;61938;48.652;9.292;2023-11-22T00:05:44;7.60;99.90
73643;DHT22;61938;48.652;9.292;2023-11-22T00:08:09;7.60;99.90
73643;DHT22;61938;48.652;9.292;2023-11-22T00:10:35;7.70;99.90
73643;DHT22;61938;48.652;9.292;2023-11-22T00:13:00;7.60;99.90
73643;DHT22;61938;48.652;9.292;2023-11-22T00:15:26;7.60;99.90
73643;DHT22;61938;48.652;9.292;2023-11-22T00:17:52;7.70;99.90
73643;DHT22;61938;48.652;9.292;2023-11-22T00:20:18;7.60;99.90
73643;DHT22;61938;48.652;9.292;2023-11-22T00:22:44;7.60;99.90
73643;DHT22;61938;48.652;9.292;2023-11-22T00:25:10;7.60;99.90
73643;DHT22;61938;48.652;9.292;2023-11-22T00:27:38;7.60;99.90
73643;DHT22;61938;48.652;9.292;2023-11-22T00:30:04;7.60;99.90
73643;DHT22;61938;48.652;9.292;2023-11-22T00:32:30;7.60;99.90
73643;DHT22;61938;48.652;9.292;2023-11-22T00:34:55;7.60;99.90
73643;DHT22;61938;48.652;9.292;2023-11-22T00:37:21;7.60;99.90
73643;DHT22;61938;48.652;9.292;2023-11-22T00:39:46;7.60;99.90
73643;DHT22;61938;48.652;9.292;2023-11-22T00:42:12;7.60;99.90
73643;DHT22;61938;48.652;9.292;2023-11-22T00:44:37;7.60;99.90
73643;DHT22;61938;48.652;9.292;2023-11-22T00:47:03;7.60;99.90
73643;DHT22;61938;48.652;9.292;2023-11-22T00:49:29;7.50;99.90
73643;DHT22;61938;48.652;9.292;2023-11-22T00:51:54;7.50;99.90
73643;DHT22;61938;48.652;9.292;2023-11-22T00:54:20;7.50;99.90
73643;DHT22;61938;48.652;9.292;2023-11-22T00:56:46;7.50;99.90
73643;DHT22;61938;48.652;9.292;2023-11-22T00:59:12;7.40;99.90
73643;DHT22;61938;48.652;9.292;2023-11-22T01:01:37;7.40;99.90
73643;DHT22;61938;48.652;9.292;2023-11-22T01:04:03;7.40;99.90
73643;DHT22;61938;48.652;9.292;2023-11-22T01:06:29;7.30;99.90
73643;DHT22;61938;48.652;9.292;2023-11-22T01:08:57;7.30;99.90
73643;DHT22;61938;48.652;9.292;2023-11-22T01:11:23;7.20;99.90
73643;DHT22;61938;48.652;9.292;2023-11-22T01:13:48;7.20;99.90
73643;DHT22;61938;48.652;9.292;2023-11-22T01:16:14;7.10;99.90
73643;DHT22;61938;48.652;9.292;2023-11-22T01:18:39;7.10;99.90
73643;DHT22;61938;48.652;9.292;2023-11-22T01:21:05;7.10;99.90
73643;DHT22;61938;48.652;9.292;2023-11-22T01:23:33;7.10;99.90
73643;DHT22;61938;48.652;9.292;2023-11-22T01:25:59;7.00;99.90
73643;DHT22;61938;48.652;9.292;2023-11-22T01:28:28;7.00;99.90
73643;DHT22;61938;48.652;9.292;2023-11-22T01:30:54;6.90;99.90
73643;DHT22;61938;48.652;9.292;2023-11-22T01:33:21;6.90;99.90
73643;DHT22;61938;48.652;9.292;2023-11-22T01:35:46;6.70;99.90
73643;DHT22;61938;48.652;9.292;2023-11-22T01:38:12;6.70;99.90
73643;DHT22;61938;48.652;9.292;2023-11-22T01:40:46;6.70;99.90
73643;DHT22;61938;48.652;9.292;2023-11-22T01:43:18;6.70;99.90
73643;DHT22;61938;48.652;9.292;2023-11-22T01:45:44;6.60;99.90
73643;DHT22;61938;48.652;9.292;2023-11-22T01:48:11;6.50;99.90
73643;DHT22;61938;48.652;9.292;2023-11-22T01:50:38;6.50;99.90
73643;DHT22;61938;48.652;9.292;2023-11-22T01:53:05;6.50;99.90
73643;DHT22;61938;48.652;9.292;2023-11-22T01:55:31;6.40;99.90
73643;DHT22;61938;48.652;9.292;2023-11-22T01:57:57;6.40;99.90
73643;DHT22;61938;48.652;9.292;2023-11-22T02:00:24;6.40;99.90
73643;DHT22;61938;48.652;9.292;2023-11-22T02:02:51;6.40;99.90
73643;DHT22;61938;48.652;9.292;2023-11-22T02:05:17;6.30;99.90
73643;DHT22;61938;48.652;9.292;2023-11-22T02:07:43;6.30;99.90
73643;DHT22;61938;48.652;9.292;2023-11-22T02:10:08;6.30;99.90
73643;DHT22;61938;48.652;9.292;2023-11-22T02:12:35;6.20;99.90
73643;DHT22;61938;48.652;9.292;2023-11-22T02:15:01;6.20;99.90
73643;DHT22;61938;48.652;9.292;2023-11-22T02:17:28;6.10;99.90
73643;DHT22;61938;48.652;9.292;2023-11-22T02:19:54;6.00;99.90
73643;DHT22;61938;48.652;9.292;2023-11-22T02:22:20;6.00;99.90
73643;DHT22;61938;48.652;9.292;2023-11-22T02:24:45;6.00;99.90
73643;DHT22;61938;48.652;9.292;2023-11-22T02:27:10;6.00;99.90
73643;DHT22;61938;48.652;9.292;2023-11-22T02:29:36;6.00;99.90
73643;DHT22;61938;48.652;9.292;2023-11-22T02:32:02;6.00;99.90
73643;DHT22;61938;48.652;9.292;2023-11-22T02:34:27;5.90;99.90
73643;DHT22;61938;48.652;9.292;2023-11-22T02:36:53;5.80;99.90
73643;DHT22;61938;48.652;9.292;2023-11-22T02:39:18;5.80;99.90
73643;DHT22;61938;48.652;9.292;2023-11-22T02:41:44;5.80;99.90
73643;DHT22;61938;48.652;9.292;2023-11-22T02:44:10;5.80;99.90
73643;DHT22;61938;48.652;9.292;2023-11-22T02:46:36;5.80;99.90
73643;DHT22;61938;48.652;9.292;2023-11-22T02:49:01;5.70;99.90
73643;DHT22;61938;48.652;9.292;2023-11-22T02:51:27;5.70;99.90
73643;DHT22;61938;48.652;9.292;2023-11-22T02:53:53;5.70;99.90
73643;DHT22;61938;48.652;9.292;2023-11-22T02:56:19;5.60;99.90
73643;DHT22;61938;48.652;9.292;2023-11-22T02:58:44;5.50;99.90
73643;DHT22;61938;48.652;9.292;2023-11-22T03:01:11;5.40;99.90
73643;DHT22;61938;48.652;9.292;2023-11-22T03:03:36;5.40;99.90
73643;DHT22;61938;48.652;9.292;2023-11-22T03:06:02;5.30;99.90
73643;DHT22;61938;48.652;9.292;2023-11-22T03:08:28;5.30;99.90
73643;DHT22;61938;48.652;9.292;2023-11-22T03:10:53;5.30;99.90
73643;DHT22;61938;48.652;9.292;2023-11-22T03:13:20;5.30;99.90
73643;DHT22;61938;48.652;9.292;2023-11-22T03:15:46;5.20;99.90
73643;DHT22;61938;48.652;9.292;2023-11-22T03:18:12;5.20;99.90
73643;DHT22;61938;48.652;9.292;2023-11-22T03:20:37;5.10;99.90
73643;DHT22;61938;48.652;9.292;2023-11-22T03:23:04;5.10;99.90
73643;DHT22;61938;48.652;9.292;2023-11-22T03:25:30;5.00;99.90
73643;DHT22;61938;48.652;9.292;2023-11-22T03:27:56;5.00;99.90
73643;DHT22;61938;48.652;9.292;2023-11-22T03:30:22;5.00;99.90
73643;DHT22;61938;48.652;9.292;2023-11-22T03:32:47;5.00;99.90
73643;DHT22;61938;48.652;9.292;2023-11-22T03:35:15;4.90;99.90
73643;DHT22;61938;48.652;9.292;2023-11-22T03:37:42;4.90;99.90
73643;DHT22;61938;48.652;9.292;2023-11-22T03:40:08;4.90;99.90
73643;DHT22;61938;48.652;9.292;2023-11-22T03:42:36;4.90;99.90
73643;DHT22;61938;48.652;9.292;2023-11-22T03:45:03;4.80;99.90
73643;DHT22;61938;48.652;9.292;2023-11-22T03:47:28;4.80;99.90
73643;DHT22;61938;48.652;9.292;2023-11-22T03:49:54;4.90;99.90
73643;DHT22;61938;48.652;9.292;2023-11-22T03:52:19;4.80;99.90
73643;DHT22;61938;48.652;9.292;2023-11-22T03:54:45;4.70;99.90
73643;DHT22;61938;48.652;9.292;2023-11-22T03:57:10;4.70;99.90
73643;DHT22;61938;48.652;9.292;2023-11-22T03:59:36;4.60;99.90
73643;DHT22;61938;48.652;9.292;2023-11-22T04:02:01;4.60;99.90
73643;DHT22;61938;48.652;9.292;2023-11-22T04:04:27;4.40;99.90
73643;DHT22;61938;48.652;9.292;2023-11-22T04:06:52;4.50;99.90
73643;DHT22;61938;48.652;9.292;2023-11-22T04:09:18;4.40;99.90
73643;DHT22;61938;48.652;9.292;2023-11-22T04:11:45;4.40;99.90
73643;DHT22;61938;48.652;9.292;2023-11-22T04:14:12;4.40;99.90
73643;DHT22;61938;48.652;9.292;2023-11-22T04:16:37;4.40;99.90
73643;DHT22;61938;48.652;9.292;2023-11-22T04:19:03;4.30;99.90
73643;DHT22;61938;48.652;9.292;2023-11-22T04:21:28;4.30;99.90
73643;DHT22;61938;48.652;9.292;2023-11-22T04:23:54;4.30;99.90
73643;DHT22;61938;48.652;9.292;2023-11-22T04:26:20;4.30;99.90
73643;DHT22;61938;48.652;9.292;2023-11-22T04:28:46;4.40;99.90
73643;DHT22;61938;48.652;9.292;2023-11-22T04:31:11;4.20;99.90
73643;DHT22;61938;48.652;9.292;2023-11-22T04:33:37;4.20;99.90
73643;DHT22;61938;48.652;9.292;2023-11-22T04:36:03;4.10;99.90
73643;DHT22;61938;48.652;9.292;2023-11-22T04:38:29;4.20;99.90
73643;DHT22;61938;48.652;9.292;2023-11-22T04:40:55;4.10;99.90
73643;DHT22;61938;48.652;9.292;2023-11-22T04:43:20;4.10;99.90
73643;DHT22;61938;48.652;9.292;2023-11-22T04:45:46;4.10;99.90
73643;DHT22;61938;48.652;9.292;2023-11-22T04:48:11;4.10;99.90
73643;DHT22;61938;48.652;9.292;2023-11-22T04:50:40;4.00;99.90
73643;DHT22;61938;48.652;9.292;2023-11-22T04:53:06;3.90;99.90
73643;DHT22;61938;48.652;9.292;2023-11-22T04:55:31;3.90;99.90
73643;DHT22;61938;48.652;9.292;2023-11-22T04:57:57;4.00;99.90
73643;DHT22;61938;48.652;9.292;2023-11-22T05:00:22;3.90;99.90
73643;DHT22;61938;48.652;9.292;2023-11-22T05:02:51;3.90;99.90
73643;DHT22;61938;48.652;9.292;2023-11-22T05:05:16;4.00;99.90
73643;DHT22;61938;48.652;9.292;2023-11-22T05:07:42;4.00;99.90
73643;DHT22;61938;48.652;9.292;2023-11-22T05:10:07;3.90;99.90
73643;DHT22;61938;48.652;9.292;2023-11-22T05:12:37;3.90;99.90
73643;DHT22;61938;48.652;9.292;2023-11-22T05:15:02;3.90;99.90
73643;DHT22;61938;48.652;9.292;2023-11-22T05:17:28;3.90;99.90
73643;DHT22;61938;48.652;9.292;2023-11-22T05:19:54;3.80;99.90
73643;DHT22;61938;48.652;9.292;2023-11-22T05:22:19;3.90;99.90
73643;DHT22;61938;48.652;9.292;2023-11-22T05:24:45;3.80;99.90
73643;DHT22;61938;48.652;9.292;2023-11-22T05:27:10;3.80;99.90
73643;DHT22;61938;48.652;9.292;2023-11-22T05:29:36;3.80;99.90
73643;DHT22;61938;48.652;9.292;2023-11-22T05:32:02;3.80;99.90
73643;DHT22;61938;48.652;9.292;2023-11-22T05:34:28;3.80;99.90
73643;DHT22;61938;48.652;9.292;2023-11-22T05:36:54;3.70;99.90
73643;DHT22;61938;48.652;9.292;2023-11-22T05:39:20;3.70;99.90
73643;DHT22;61938;48.652;9.292;2023-11-22T05:41:47;3.70;99.90
73643;DHT22;61938;48.652;9.292;2023-11-22T05:44:14;3.60;99.90
73643;DHT22;61938;48.652;9.292;2023-11-22T05:46:39;3.60;99.90
73643;DHT22;61938;48.652;9.292;2023-11-22T05:49:05;3.60;99.90
73643;DHT22;61938;48.652;9.292;2023-11-22T05:51:31;3.60;99.90
73643;DHT22;61938;48.652;9.292;2023-11-22T05:53:56;3.60;99.90
73643;DHT22;61938;48.652;9.292;2023-11-22T05:56:22;3.60;99.90
73643;DHT22;61938;48.652;9.292;2023-11-22T05:58:47;3.60;99.90
73643;DHT22;61938;48.652;9.292;2023-11-22T06:01:13;3.60;99.90
73643;DHT22;61938;48.652;9.292;2023-11-22T06:03:39;3.60;99.90
73643;DHT22;61938;48.652;9.292;2023-11-22T06:06:05;3.50;99.90
73643;DHT22;61938;48.652;9.292;2023-11-22T06:08:31;3.50;99.90
73643;DHT22;61938;48.652;9.292;2023-11-22T06:10:57;3.50;99.90
73643;DHT22;61938;48.652;9.292;2023-11-22T06:13:23;3.50;99.90
73643;DHT22;61938;48.652;9.292;2023-11-22T06:15:49;3.50;99.90
73643;DHT22;61938;48.652;9.292;2023-11-22T06:18:14;3.40;99.90
73643;DHT22;61938;48.652;9.292;2023-11-22T06:20:41;3.50;99.90
73643;DHT22;61938;48.652;9.292;2023-11-22T06:23:07;3.40;99.90
73643;DHT22;61938;48.652;9.292;2023-11-22T06:25:32;3.40;99.90
73643;DHT22;61938;48.652;9.292;2023-11-22T06:27:58;3.40;99.90
73643;DHT22;61938;48.652;9.292;2023-11-22T06:30:23;3.40;99.90
73643;DHT22;61938;48.652;9.292;2023-11-22T06:32:50;3.40;99.90
73643;DHT22;61938;48.652;9.292;2023-11-22T06:35:16;3.40;99.90
73643;DHT22;61938;48.652;9.292;2023-11-22T06:37:43;3.30;99.90
73643;DHT22;61938;48.652;9.292;2023-11-22T06:40:10;3.40;99.90
73643;DHT22;61938;48.652;9.292;2023-11-22T06:42:38;3.30;99.90
73643;DHT22;61938;48.652;9.292;2023-11-22T06:45:05;3.30;99.90
73643;DHT22;61938;48.652;9.292;2023-11-22T06:47:32;3.30;99.90
73643;DHT22;61938;48.652;9.292;2023-11-22T06:49:57;3.30;99.90
73643;DHT22;61938;48.652;9.292;2023-11-22T06:52:23;3.30;99.90
73643;DHT22;61938;48.652;9.292;2023-11-22T06:54:49;3.20;99.90
73643;DHT22;61938;48.652;9.292;2023-11-22T06:57:15;3.30;99.90
73643;DHT22;61938;48.652;9.292;2023-11-22T06:59:40;3.30;99.90
73643;DHT22;61938;48.652;9.292;2023-11-22T07:02:06;3.30;99.90
73643;DHT22;61938;48.652;9.292;2023-11-22T07:04:32;3.20;99.90
73643;DHT22;61938;48.652;9.292;2023-11-22T07:06:58;3.30;99.90
73643;DHT22;61938;48.652;9.292;2023-11-22T07:09:23;3.30;99.90
73643;DHT22;61938;48.652;9.292;2023-11-22T07:11:49;3.20;99.90
73643;DHT22;61938;48.652;9.292;2023-11-22T07:14:15;3.20;99.90
73643;DHT22;61938;48.652;9.292;2023-11-22T07:16:41;3.20;99.90
73643;DHT22;61938;48.652;9.292;2023-11-22T07:19:07;3.20;99.90
73643;DHT22;61938;48.652;9.292;2023-11-22T07:21:33;3.80;99.90
73643;DHT22;61938;48.652;9.292;2023-11-22T07:23:59;3.20;99.90
73643;DHT22;61938;48.652;9.292;2023-11-22T07:26:25;3.20;99.90
73643;DHT22;61938;48.652;9.292;2023-11-22T07:28:53;3.20;99.90
73643;DHT22;61938;48.652;9.292;2023-11-22T07:31:19;3.30;99.90
73643;DHT22;61938;48.652;9.292;2023-11-22T07:33:45;3.20;99.90
73643;DHT22;61938;48.652;9.292;2023-11-22T07:36:12;3.10;99.90
73643;DHT22;61938;48.652;9.292;2023-11-22T07:38:39;3.20;99.90
73643;DHT22;61938;48.652;9.292;2023-11-22T07:41:06;3.20;99.90
73643;DHT22;61938;48.652;9.292;2023-11-22T07:43:32;3.20;99.90
73643;DHT22;61938;48.652;9.292;2023-11-22T07:45:58;3.20;99.90
73643;DHT22;61938;48.652;9.292;2023-11-22T07:48:25;3.20;99.90
73643;DHT22;61938;48.652;9.292;2023-11-22T07:50:50;3.10;99.90
73643;DHT22;61938;48.652;9.292;2023-11-22T07:53:17;3.20;99.90
73643;DHT22;61938;48.652;9.292;2023-11-22T07:55:43;3.20;99.90
73643;DHT22;61938;48.652;9.292;2023-11-22T07:58:08;3.20;99.90
73643;DHT22;61938;48.652;9.292;2023-11-22T08:00:34;3.20;99.90
73643;DHT22;61938;48.652;9.292;2023-11-22T08:03:00;3.20;99.90
73643;DHT22;61938;48.652;9.292;2023-11-22T08:05:29;3.20;99.90
73643;DHT22;61938;48.652;9.292;2023-11-22T08:08:01;3.20;99.90
73643;DHT22;61938;48.652;9.292;2023-11-22T08:10:27;3.20;99.90
73643;DHT22;61938;48.652;9.292;2023-11-22T08:12:53;3.20;99.90
73643;DHT22;61938;48.652;9.292;2023-11-22T08:15:18;3.20;99.90
73643;DHT22;61938;48.652;9.292;2023-11-22T08:17:45;3.20;99.90
73643;DHT22;61938;48.652;9.292;2023-11-22T08:20:11;3.30;99.90
73643;DHT22;61938;48.652;9.292;2023-11-22T08:22:39;3.20;99.90
73643;DHT22;61938;48.652;9.292;2023-11-22T08:25:06;3.10;99.90
73643;DHT22;61938;48.652;9.292;2023-11-22T08:27:33;3.20;99.90
73643;DHT22;61938;48.652;9.292;2023-11-22T08:29:59;3.20;99.90
73643;DHT22;61938;48.652;9.292;2023-11-22T08:32:30;3.30;99.90
73643;DHT22;61938;48.652;9.292;2023-11-22T08:34:56;3.20;99.90
73643;DHT22;61938;48.652;9.292;2023-11-22T08:37:22;3.10;99.90
73643;DHT22;61938;48.652;9.292;2023-11-22T08:39:47;3.20;99.90
73643;DHT22;61938;48.652;9.292;2023-11-22T08:42:14;3.20;99.90
73643;DHT22;61938;48.652;9.292;2023-11-22T08:44:40;3.30;99.90
73643;DHT22;61938;48.652;9.292;2023-11-22T08:47:06;3.20;99.90
73643;DHT22;61938;48.652;9.292;2023-11-22T08:49:33;3.20;99.90
73643;DHT22;61938;48.652;9.292;2023-11-22T08:51:58;3.20;99.90
73643;DHT22;61938;48.652;9.292;2023-11-22T08:54:25;3.30;99.90
73643;DHT22;61938;48.652;9.292;2023-11-22T08:56:56;3.20;99.90
73643;DHT22;61938;48.652;9.292;2023-11-22T08:59:22;3.20;99.90
73643;DHT22;61938;48.652;9.292;2023-11-22T09:01:47;3.20;99.90
73643;DHT22;61938;48.652;9.292;2023-11-22T09:04:13;3.10;99.90
73643;DHT22;61938;48.652;9.292;2023-11-22T09:06:39;3.20;99.90
73643;DHT22;61938;48.652;9.292;2023-11-22T09:09:04;3.10;99.90
73643;DHT22;61938;48.652;9.292;2023-11-22T09:11:30;3.10;99.90
73643;DHT22;61938;48.652;9.292;2023-11-22T09:13:57;3.20;99.90
73643;DHT22;61938;48.652;9.292;2023-11-22T09:16:23;3.20;99.90
73643;DHT22;61938;48.652;9.292;2023-11-22T09:18:50;3.10;99.90
73643;DHT22;61938;48.652;9.292;2023-11-22T09:21:16;3.10;99.90
73643;DHT22;61938;48.652;9.292;2023-11-22T09:23:45;3.20;99.90
73643;DHT22;61938;48.652;9.292;2023-11-22T09:26:13;3.10;99.90
73643;DHT22;61938;48.652;9.292;2023-11-22T09:28:39;3.20;99.90
73643;DHT22;61938;48.652;9.292;2023-11-22T09:31:06;3.20;99.90
73643;DHT22;61938;48.652;9.292;2023-11-22T09:33:32;3.20;99.90
73643;DHT22;61938;48.652;9.292;2023-11-22T09:35:58;3.20;99.90
73643;DHT22;61938;48.652;9.292;2023-11-22T09:38:23;3.20;99.90
73643;DHT22;61938;48.652;9.292;2023-11-22T09:40:49;3.20;99.90
73643;DHT22;61938;48.652;9.292;2023-11-22T09:43:17;3.20;99.90
73643;DHT22;61938;48.652;9.292;2023-11-22T09:45:47;3.20;99.90
73643;DHT22;61938;48.652;9.292;2023-11-22T09:48:17;3.20;99.90
73643;DHT22;61938;48.652;9.292;2023-11-22T09:51:09;3.20;99.90
73643;DHT22;61938;48.652;9.292;2023-11-22T09:56:08;3.20;99.90
73643;DHT22;61938;48.652;9.292;2023-11-22T09:58:35;3.20;99.90
73643;DHT22;61938;48.652;9.292;2023-11-22T10:01:03;3.10;99.90
73643;DHT22;61938;48.652;9.292;2023-11-22T10:03:29;3.30;99.90
73643;DHT22;61938;48.652;9.292;2023-11-22T10:05:56;3.20;99.90
73643;DHT22;61938;48.652;9.292;2023-11-22T10:08:25;3.20;99.90
73643;DHT22;61938;48.652;9.292;2023-11-22T10:10:50;3.20;99.90
73643;DHT22;61938;48.652;9.292;2023-11-22T10:13:17;3.30;99.90
73643;DHT22;61938;48.652;9.292;2023-11-22T10:15:48;3.30;99.90
73643;DHT22;61938;48.652;9.292;2023-11-22T10:18:14;3.30;99.90
73643;DHT22;61938;48.652;9.292;2023-11-22T10:20:41;3.30;99.90
73643;DHT22;61938;48.652;9.292;2023-11-22T10:23:10;3.30;99.90
73643;DHT22;61938;48.652;9.292;2023-11-22T10:25:46;3.40;99.90
73643;DHT22;61938;48.652;9.292;2023-11-22T10:28:17;3.30;99.90
73643;DHT22;61938;48.652;9.292;2023-11-22T10:30:49;3.20;99.90
73643;DHT22;61938;48.652;9.292;2023-11-22T10:33:20;3.20;99.90
73643;DHT22;61938;48.652;9.292;2023-11-22T10:35:51;3.20;99.90
73643;DHT22;61938;48.652;9.292;2023-11-22T10:38:20;3.20;99.90
73643;DHT22;61938;48.652;9.292;2023-11-22T10:40:46;3.20;99.90
73643;DHT22;61938;48.652;9.292;2023-11-22T10:43:16;3.20;99.90
73643;DHT22;61938;48.652;9.292;2023-11-22T10:45:43;3.20;99.90
73643;DHT22;61938;48.652;9.292;2023-11-22T10:48:15;3.20;99.90
73643;DHT22;61938;48.652;9.292;2023-11-22T10:50:42;3.30;99.90
73643;DHT22;61938;48.652;9.292;2023-11-22T10:53:15;3.30;99.90
73643;DHT22;61938;48.652;9.292;2023-11-22T10:55:48;3.10;99.90
73643;DHT22;61938;48.652;9.292;2023-11-22T10:58:14;3.20;99.90
73643;DHT22;61938;48.652;9.292;2023-11-22T11:00:41;3.30;99.90
73643;DHT22;61938;48.652;9.292;2023-11-22T11:03:13;3.30;99.90
73643;DHT22;61938;48.652;9.292;2023-11-22T11:05:44;3.30;99.90
73643;DHT22;61938;48.652;9.292;2023-11-22T11:08:12;3.30;99.90
73643;DHT22;61938;48.652;9.292;2023-11-22T11:10:43;3.40;99.90
73643;DHT22;61938;48.652;9.292;2023-11-22T11:13:12;3.30;99.90
73643;DHT22;61938;48.652;9.292;2023-11-22T11:15:40;3.30;99.90
73643;DHT22;61938;48.652;9.292;2023-11-22T11:18:11;3.30;99.90
73643;DHT22;61938;48.652;9.292;2023-11-22T11:23:14;3.30;99.90
73643;DHT22;61938;48.652;9.292;2023-11-22T11:25:41;3.30;99.90
73643;DHT22;61938;48.652;9.292;2023-11-22T11:28:10;3.30;99.90
73643;DHT22;61938;48.652;9.292;2023-11-22T11:30:44;3.30;99.90
73643;DHT22;61938;48.652;9.292;2023-11-22T11:33:12;3.30;99.90
73643;DHT22;61938;48.652;9.292;2023-11-22T11:35:48;3.30;99.90
73643;DHT22;61938;48.652;9.292;2023-11-22T11:38:15;3.30;99.90
73643;DHT22;61938;48.652;9.292;2023-11-22T11:40:42;3.30;99.90
73643;DHT22;61938;48.652;9.292;2023-11-22T11:43:10;3.40;99.90
73643;DHT22;61938;48.652;9.292;2023-11-22T11:45:38;3.30;99.90
73643;DHT22;61938;48.652;9.292;2023-11-22T11:48:05;3.20;99.90
73643;DHT22;61938;48.652;9.292;2023-11-22T11:50:31;3.20;99.90
73643;DHT22;61938;48.652;9.292;2023-11-22T11:52:57;3.20;99.90
73643;DHT22;61938;48.652;9.292;2023-11-22T11:55:22;3.30;99.90
73643;DHT22;61938;48.652;9.292;2023-11-22T11:57:48;3.30;99.90
73643;DHT22;61938;48.652;9.292;2023-11-22T12:00:14;3.20;99.90
73643;DHT22;61938;48.652;9.292;2023-11-22T12:02:43;3.20;99.90
73643;DHT22;61938;48.652;9.292;2023-11-22T12:05:08;3.20;99.90
73643;DHT22;61938;48.652;9.292;2023-11-22T12:07:37;3.20;99.90
73643;DHT22;61938;48.652;9.292;2023-11-22T12:10:04;3.20;99.90
73643;DHT22;61938;48.652;9.292;2023-11-22T12:12:32;3.60;99.90
73643;DHT22;61938;48.652;9.292;2023-11-22T12:14:58;3.20;99.90
73643;DHT22;61938;48.652;9.292;2023-11-22T12:17:25;3.20;99.90
73643;DHT22;61938;48.652;9.292;2023-11-22T12:19:51;3.20;99.90
73643;DHT22;61938;48.652;9.292;2023-11-22T12:22:17;3.20;99.90
73643;DHT22;61938;48.652;9.292;2023-11-22T12:24:43;3.20;99.90
73643;DHT22;61938;48.652;9.292;2023-11-22T12:27:12;3.20;99.90
73643;DHT22;61938;48.652;9.292;2023-11-22T12:29:38;3.20;99.90
73643;DHT22;61938;48.652;9.292;2023-11-22T12:32:05;3.20;99.90
73643;DHT22;61938;48.652;9.292;2023-11-22T12:34:32;3.10;99.90
73643;DHT22;61938;48.652;9.292;2023-11-22T12:36:59;3.20;99.90
73643;DHT22;61938;48.652;9.292;2023-11-22T12:39:24;3.10;99.90
73643;DHT22;61938;48.652;9.292;2023-11-22T12:41:53;3.20;99.90
73643;DHT22;61938;48.652;9.292;2023-11-22T12:44:19;3.10;99.90
73643;DHT22;61938;48.652;9.292;2023-11-22T12:46:52;3.20;99.90
73643;DHT22;61938;48.652;9.292;2023-11-22T12:49:23;3.30;99.90
73643;DHT22;61938;48.652;9.292;2023-11-22T12:51:53;3.20;99.90
73643;DHT22;61938;48.652;9.292;2023-11-22T12:54:19;3.20;99.90
73643;DHT22;61938;48.652;9.292;2023-11-22T12:56:52;3.20;99.90
73643;DHT22;61938;48.652;9.292;2023-11-22T12:59:24;3.20;99.90
73643;DHT22;61938;48.652;9.292;2023-11-22T13:01:50;3.20;99.90
73643;DHT22;61938;48.652;9.292;2023-11-22T13:04:15;3.10;99.90
73643;DHT22;61938;48.652;9.292;2023-11-22T13:06:41;3.10;99.90
73643;DHT22;61938;48.652;9.292;2023-11-22T13:09:08;3.10;99.90
73643;DHT22;61938;48.652;9.292;2023-11-22T13:11:40;3.20;99.90
73643;DHT22;61938;48.652;9.292;2023-11-22T13:14:05;3.10;99.90
73643;DHT22;61938;48.652;9.292;2023-11-22T13:16:31;3.10;99.90
73643;DHT22;61938;48.652;9.292;2023-11-22T13:18:59;3.10;99.90
73643;DHT22;61938;48.652;9.292;2023-11-22T13:21:24;3.20;99.90
73643;DHT22;61938;48.652;9.292;2023-11-22T13:23:50;3.10;99.90
73643;DHT22;61938;48.652;9.292;2023-11-22T13:26:15;3.10;99.90
73643;DHT22;61938;48.652;9.292;2023-11-22T13:28:42;3.00;99.90
73643;DHT22;61938;48.652;9.292;2023-11-22T13:31:07;3.10;99.90
73643;DHT22;61938;48.652;9.292;2023-11-22T13:33:33;3.10;99.90
73643;DHT22;61938;48.652;9.292;2023-11-22T13:35:59;3.00;99.90
73643;DHT22;61938;48.652;9.292;2023-11-22T13:38:25;3.00;99.90
73643;DHT22;61938;48.652;9.292;2023-11-22T13:40:50;3.10;99.90
73643;DHT22;61938;48.652;9.292;2023-11-22T13:43:16;3.20;99.90
73643;DHT22;61938;48.652;9.292;2023-11-22T13:45:43;3.00;99.90
73643;DHT22;61938;48.652;9.292;2023-11-22T13:48:10;3.00;99.90
73643;DHT22;61938;48.652;9.292;2023-11-22T13:50:36;3.00;99.90
73643;DHT22;61938;48.652;9.292;2023-11-22T13:53:02;3.00;99.90
73643;DHT22;61938;48.652;9.292;2023-11-22T13:55:29;3.00;99.90
73643;DHT22;61938;48.652;9.292;2023-11-22T13:57:57;3.20;99.90
73643;DHT22;61938;48.652;9.292;2023-11-22T14:00:24;3.00;99.90
73643;DHT22;61938;48.652;9.292;2023-11-22T14:02:56;3.00;99.90
73643;DHT22;61938;48.652;9.292;2023-11-22T14:07:47;3.00;99.90
73643;DHT22;61938;48.652;9.292;2023-11-22T14:10:14;3.00;99.90
73643;DHT22;61938;48.652;9.292;2023-11-22T14:12:42;3.00;99.90
73643;DHT22;61938;48.652;9.292;2023-11-22T14:15:08;3.00;99.90
73643;DHT22;61938;48.652;9.292;2023-11-22T14:17:34;3.00;99.90
73643;DHT22;61938;48.652;9.292;2023-11-22T14:20:00;3.00;99.90
73643;DHT22;61938;48.652;9.292;2023-11-22T14:22:25;3.00;99.90
73643;DHT22;61938;48.652;9.292;2023-11-22T14:24:52;3.00;99.90
73643;DHT22;61938;48.652;9.292;2023-11-22T14:27:18;3.00;99.90
73643;DHT22;61938;48.652;9.292;2023-11-22T14:29:45;2.90;99.90
73643;DHT22;61938;48.652;9.292;2023-11-22T14:32:14;3.00;99.90
73643;DHT22;61938;48.652;9.292;2023-11-22T14:34:40;3.00;99.90
73643;DHT22;61938;48.652;9.292;2023-11-22T14:37:11;3.00;99.90
73643;DHT22;61938;48.652;9.292;2023-11-22T14:39:38;3.00;99.90
73643;DHT22;61938;48.652;9.292;2023-11-22T14:42:04;2.90;99.90
73643;DHT22;61938;48.652;9.292;2023-11-22T14:44:31;2.90;99.90
73643;DHT22;61938;48.652;9.292;2023-11-22T14:46:56;2.90;99.90
73643;DHT22;61938;48.652;9.292;2023-11-22T14:49:23;3.80;99.90
73643;DHT22;61938;48.652;9.292;2023-11-22T14:51:49;2.90;99.90
73643;DHT22;61938;48.652;9.292;2023-11-22T14:54:15;2.90;99.90
73643;DHT22;61938;48.652;9.292;2023-11-22T14:56:40;2.90;99.90
73643;DHT22;61938;48.652;9.292;2023-11-22T14:59:06;3.00;99.90
73643;DHT22;61938;48.652;9.292;2023-11-22T15:01:32;2.80;99.90
73643;DHT22;61938;48.652;9.292;2023-11-22T15:03:58;2.90;99.90
73643;DHT22;61938;48.652;9.292;2023-11-22T15:06:24;2.90;99.90
73643;DHT22;61938;48.652;9.292;2023-11-22T15:08:49;2.90;99.90
73643;DHT22;61938;48.652;9.292;2023-11-22T15:11:16;2.90;99.90
73643;DHT22;61938;48.652;9.292;2023-11-22T15:13:43;2.90;99.90
73643;DHT22;61938;48.652;9.292;2023-11-22T15:16:09;2.80;99.90
73643;DHT22;61938;48.652;9.292;2023-11-22T15:18:34;2.90;99.90
73643;DHT22;61938;48.652;9.292;2023-11-22T15:21:00;2.80;99.90
73643;DHT22;61938;48.652;9.292;2023-11-22T15:23:27;2.80;99.90
73643;DHT22;61938;48.652;9.292;2023-11-22T15:25:53;2.80;99.90
73643;DHT22;61938;48.652;9.292;2023-11-22T15:28:19;2.80;99.90
73643;DHT22;61938;48.652;9.292;2023-11-22T15:30:54;2.80;99.90
73643;DHT22;61938;48.652;9.292;2023-11-22T15:33:24;2.80;99.90
73643;DHT22;61938;48.652;9.292;2023-11-22T15:35:50;2.80;99.90
73643;DHT22;61938;48.652;9.292;2023-11-22T15:38:15;2.80;99.90
73643;DHT22;61938;48.652;9.292;2023-11-22T15:40:41;2.90;99.90
73643;DHT22;61938;48.652;9.292;2023-11-22T15:43:08;2.80;99.90
73643;DHT22;61938;48.652;9.292;2023-11-22T15:45:34;2.80;99.90
73643;DHT22;61938;48.652;9.292;2023-11-22T15:48:01;2.70;99.90